sensor_id;sensor_type;location;lat;lon;timestamp;P1;durP1;ratioP1;P2;durP2;ratioP2
16286;SDS011;8251;53.568;10.018;2022-12-18T00:00:59;18.30;;;8.83;;
16286;SDS011;8251;53.568;10.018;2022-12-18T00:03:30;21.03;;;9.93;;
16286;SDS011;8251;53.568;10.018;2022-12-18T00:05:58;16.30;;;9.40;;
16286;SDS011;8251;53.568;10.018;2022-12-18T00:08:24;23.00;;;11.03;;
16286;SDS011;8251;53.568;10.018;2022-12-18T00:10:53;16.23;;;9.00;;
16286;SDS011;8251;53.568;10.018;2022-12-18T00:13:20;15.30;;;8.43;;
16286;SDS011;8251;53.568;10.018;2022-12-18T00:15:47;17.10;;;9.00;;
16286;SDS011;8251;53.568;10.018;2022-12-18T00:18:15;16.33;;;7.83;;
16286;SDS011;8251;53.568;10.018;2022-12-18T00:20:42;19.27;;;8.30;;
16286;SDS011;8251;53.568;10.018;2022-12-18T00:23:09;15.67;;;8.83;;
16286;SDS011;8251;53.568;10.018;2022-12-18T00:25:36;14.27;;;8.37;;
16286;SDS011;8251;53.568;10.018;2022-12-18T00:28:06;16.00;;;8.73;;
16286;SDS011;8251;53.568;10.018;2022-12-18T00:30:33;18.97;;;8.80;;
16286;SDS011;8251;53.568;10.018;2022-12-18T00:33:03;18.93;;;8.70;;
16286;SDS011;8251;53.568;10.018;2022-12-18T00:35:31;18.90;;;9.53;;
16286;SDS011;8251;53.568;10.018;2022-12-18T00:37:58;17.10;;;9.03;;
16286;SDS011;8251;53.568;10.018;2022-12-18T00:40:25;11.77;;;7.47;;
16286;SDS011;8251;53.568;10.018;2022-12-18T00:42:52;17.43;;;7.60;;
16286;SDS011;8251;53.568;10.018;2022-12-18T00:45:24;15.27;;;8.93;;
16286;SDS011;8251;53.568;10.018;2022-12-18T00:47:57;16.50;;;8.73;;
16286;SDS011;8251;53.568;10.018;2022-12-18T00:50:24;14.07;;;6.30;;
16286;SDS011;8251;53.568;10.018;2022-12-18T00:52:53;13.53;;;7.30;;
16286;SDS011;8251;53.568;10.018;2022-12-18T00:55:20;13.70;;;7.97;;
16286;SDS011;8251;53.568;10.018;2022-12-18T00:57:48;13.80;;;7.63;;
16286;SDS011;8251;53.568;10.018;2022-12-18T01:00:18;16.10;;;7.10;;
16286;SDS011;8251;53.568;10.018;2022-12-18T01:02:45;14.67;;;8.30;;
16286;SDS011;8251;53.568;10.018;2022-12-18T01:05:12;13.00;;;8.03;;
16286;SDS011;8251;53.568;10.018;2022-12-18T01:07:42;15.50;;;7.43;;
16286;SDS011;8251;53.568;10.018;2022-12-18T01:10:11;14.60;;;8.03;;
16286;SDS011;8251;53.568;10.018;2022-12-18T01:12:38;12.07;;;7.97;;
16286;SDS011;8251;53.568;10.018;2022-12-18T01:15:13;16.20;;;8.10;;
16286;SDS011;8251;53.568;10.018;2022-12-18T01:17:40;18.07;;;8.20;;
16286;SDS011;8251;53.568;10.018;2022-12-18T01:20:08;14.00;;;7.50;;
16286;SDS011;8251;53.568;10.018;2022-12-18T01:22:37;13.20;;;7.63;;
16286;SDS011;8251;53.568;10.018;2022-12-18T01:25:04;14.77;;;7.53;;
16286;SDS011;8251;53.568;10.018;2022-12-18T01:27:34;18.30;;;8.37;;
16286;SDS011;8251;53.568;10.018;2022-12-18T01:30:01;13.30;;;7.57;;
16286;SDS011;8251;53.568;10.018;2022-12-18T01:32:29;15.27;;;7.63;;
16286;SDS011;8251;53.568;10.018;2022-12-18T01:34:59;15.30;;;7.77;;
16286;SDS011;8251;53.568;10.018;2022-12-18T01:37:26;14.87;;;7.83;;
16286;SDS011;8251;53.568;10.018;2022-12-18T01:39:55;17.70;;;7.40;;
16286;SDS011;8251;53.568;10.018;2022-12-18T01:42:24;13.07;;;7.13;;
16286;SDS011;8251;53.568;10.018;2022-12-18T01:44:56;12.50;;;7.20;;
16286;SDS011;8251;53.568;10.018;2022-12-18T01:47:32;13.87;;;8.10;;
16286;SDS011;8251;53.568;10.018;2022-12-18T01:50:05;16.83;;;8.03;;
16286;SDS011;8251;53.568;10.018;2022-12-18T01:52:36;13.13;;;7.63;;
16286;SDS011;8251;53.568;10.018;2022-12-18T01:55:08;17.50;;;7.47;;
16286;SDS011;8251;53.568;10.018;2022-12-18T01:57:36;13.50;;;7.50;;
16286;SDS011;8251;53.568;10.018;2022-12-18T02:00:10;16.10;;;8.37;;
16286;SDS011;8251;53.568;10.018;2022-12-18T02:02:40;13.07;;;6.37;;
16286;SDS011;8251;53.568;10.018;2022-12-18T02:05:07;14.63;;;6.93;;
16286;SDS011;8251;53.568;10.018;2022-12-18T02:07:38;12.70;;;6.83;;
16286;SDS011;8251;53.568;10.018;2022-12-18T02:10:12;11.93;;;7.00;;
16286;SDS011;8251;53.568;10.018;2022-12-18T02:12:45;14.03;;;7.37;;
16286;SDS011;8251;53.568;10.018;2022-12-18T02:15:18;12.03;;;7.23;;
16286;SDS011;8251;53.568;10.018;2022-12-18T02:17:52;13.57;;;7.57;;
16286;SDS011;8251;53.568;10.018;2022-12-18T02:20:24;13.77;;;7.33;;
16286;SDS011;8251;53.568;10.018;2022-12-18T02:23:01;14.37;;;7.80;;
16286;SDS011;8251;53.568;10.018;2022-12-18T02:25:39;14.73;;;7.60;;
16286;SDS011;8251;53.568;10.018;2022-12-18T02:28:19;12.90;;;6.97;;
16286;SDS011;8251;53.568;10.018;2022-12-18T02:30:54;12.97;;;6.97;;
16286;SDS011;8251;53.568;10.018;2022-12-18T02:33:25;14.03;;;7.37;;
16286;SDS011;8251;53.568;10.018;2022-12-18T02:35:53;14.87;;;7.57;;
16286;SDS011;8251;53.568;10.018;2022-12-18T02:38:22;16.40;;;7.67;;
16286;SDS011;8251;53.568;10.018;2022-12-18T02:40:52;10.87;;;6.50;;
16286;SDS011;8251;53.568;10.018;2022-12-18T02:43:20;18.37;;;7.33;;
16286;SDS011;8251;53.568;10.018;2022-12-18T02:45:49;14.20;;;6.63;;
16286;SDS011;8251;53.568;10.018;2022-12-18T02:48:19;13.67;;;7.60;;
16286;SDS011;8251;53.568;10.018;2022-12-18T02:50:50;13.97;;;6.70;;
16286;SDS011;8251;53.568;10.018;2022-12-18T02:53:24;13.83;;;6.30;;
16286;SDS011;8251;53.568;10.018;2022-12-18T02:56:02;10.33;;;6.73;;
16286;SDS011;8251;53.568;10.018;2022-12-18T02:58:37;14.17;;;7.23;;
16286;SDS011;8251;53.568;10.018;2022-12-18T03:01:15;10.77;;;5.87;;
16286;SDS011;8251;53.568;10.018;2022-12-18T03:03:50;13.30;;;6.50;;
16286;SDS011;8251;53.568;10.018;2022-12-18T03:06:25;11.77;;;6.57;;
16286;SDS011;8251;53.568;10.018;2022-12-18T03:08:56;12.77;;;6.40;;
16286;SDS011;8251;53.568;10.018;2022-12-18T03:11:27;13.07;;;6.33;;
16286;SDS011;8251;53.568;10.018;2022-12-18T03:14:19;10.67;;;5.97;;
16286;SDS011;8251;53.568;10.018;2022-12-18T03:16:47;12.23;;;6.93;;
16286;SDS011;8251;53.568;10.018;2022-12-18T03:19:22;11.97;;;6.13;;
16286;SDS011;8251;53.568;10.018;2022-12-18T03:21:54;13.27;;;5.80;;
16286;SDS011;8251;53.568;10.018;2022-12-18T03:24:24;13.50;;;6.47;;
16286;SDS011;8251;53.568;10.018;2022-12-18T03:26:58;8.90;;;5.50;;
16286;SDS011;8251;53.568;10.018;2022-12-18T03:29:31;9.87;;;5.63;;
16286;SDS011;8251;53.568;10.018;2022-12-18T03:32:03;10.00;;;6.03;;
16286;SDS011;8251;53.568;10.018;2022-12-18T03:34:39;16.37;;;5.90;;
16286;SDS011;8251;53.568;10.018;2022-12-18T03:37:08;9.93;;;5.20;;
16286;SDS011;8251;53.568;10.018;2022-12-18T03:39:35;11.37;;;6.13;;
16286;SDS011;8251;53.568;10.018;2022-12-18T03:42:05;9.27;;;5.63;;
16286;SDS011;8251;53.568;10.018;2022-12-18T03:44:39;12.10;;;6.77;;
16286;SDS011;8251;53.568;10.018;2022-12-18T03:47:12;8.03;;;4.73;;
16286;SDS011;8251;53.568;10.018;2022-12-18T03:49:43;11.73;;;6.47;;
16286;SDS011;8251;53.568;10.018;2022-12-18T03:52:15;7.60;;;5.67;;
16286;SDS011;8251;53.568;10.018;2022-12-18T03:54:52;11.83;;;5.80;;
16286;SDS011;8251;53.568;10.018;2022-12-18T03:57:26;8.20;;;5.80;;
16286;SDS011;8251;53.568;10.018;2022-12-18T03:59:57;9.60;;;5.43;;
16286;SDS011;8251;53.568;10.018;2022-12-18T04:02:27;16.10;;;5.93;;
16286;SDS011;8251;53.568;10.018;2022-12-18T04:04:56;10.83;;;6.30;;
16286;SDS011;8251;53.568;10.018;2022-12-18T04:07:26;11.73;;;6.13;;
16286;SDS011;8251;53.568;10.018;2022-12-18T04:09:55;13.63;;;6.43;;
16286;SDS011;8251;53.568;10.018;2022-12-18T04:12:28;10.87;;;5.27;;
16286;SDS011;8251;53.568;10.018;2022-12-18T04:14:57;10.20;;;5.80;;
16286;SDS011;8251;53.568;10.018;2022-12-18T04:17:24;13.23;;;5.50;;
16286;SDS011;8251;53.568;10.018;2022-12-18T04:19:54;7.53;;;5.47;;
16286;SDS011;8251;53.568;10.018;2022-12-18T04:22:21;10.13;;;5.87;;
16286;SDS011;8251;53.568;10.018;2022-12-18T04:24:48;8.33;;;5.20;;
16286;SDS011;8251;53.568;10.018;2022-12-18T04:27:17;8.23;;;5.67;;
16286;SDS011;8251;53.568;10.018;2022-12-18T04:29:46;10.77;;;5.60;;
16286;SDS011;8251;53.568;10.018;2022-12-18T04:32:13;17.83;;;6.70;;
16286;SDS011;8251;53.568;10.018;2022-12-18T04:34:43;13.03;;;5.57;;
16286;SDS011;8251;53.568;10.018;2022-12-18T04:37:10;11.13;;;6.23;;
16286;SDS011;8251;53.568;10.018;2022-12-18T04:39:40;10.50;;;6.07;;
16286;SDS011;8251;53.568;10.018;2022-12-18T04:42:07;11.23;;;6.03;;
16286;SDS011;8251;53.568;10.018;2022-12-18T04:44:36;9.23;;;5.07;;
16286;SDS011;8251;53.568;10.018;2022-12-18T04:47:06;11.10;;;6.07;;
16286;SDS011;8251;53.568;10.018;2022-12-18T04:49:33;13.80;;;5.50;;
16286;SDS011;8251;53.568;10.018;2022-12-18T04:52:00;11.83;;;6.10;;
16286;SDS011;8251;53.568;10.018;2022-12-18T04:54:27;11.53;;;6.03;;
16286;SDS011;8251;53.568;10.018;2022-12-18T04:56:54;14.33;;;6.50;;
16286;SDS011;8251;53.568;10.018;2022-12-18T04:59:21;13.20;;;6.37;;
16286;SDS011;8251;53.568;10.018;2022-12-18T05:01:51;12.87;;;5.27;;
16286;SDS011;8251;53.568;10.018;2022-12-18T05:04:19;11.30;;;5.50;;
16286;SDS011;8251;53.568;10.018;2022-12-18T05:06:46;11.43;;;5.30;;
16286;SDS011;8251;53.568;10.018;2022-12-18T05:09:13;9.50;;;5.93;;
16286;SDS011;8251;53.568;10.018;2022-12-18T05:11:43;15.43;;;6.40;;
16286;SDS011;8251;53.568;10.018;2022-12-18T05:14:10;13.37;;;4.97;;
16286;SDS011;8251;53.568;10.018;2022-12-18T05:16:37;10.50;;;5.63;;
16286;SDS011;8251;53.568;10.018;2022-12-18T05:19:04;9.63;;;5.47;;
16286;SDS011;8251;53.568;10.018;2022-12-18T05:21:32;10.47;;;6.27;;
16286;SDS011;8251;53.568;10.018;2022-12-18T05:24:05;8.13;;;4.77;;
16286;SDS011;8251;53.568;10.018;2022-12-18T05:26:32;9.27;;;5.63;;
16286;SDS011;8251;53.568;10.018;2022-12-18T05:29:02;13.57;;;4.73;;
16286;SDS011;8251;53.568;10.018;2022-12-18T05:31:29;12.53;;;6.10;;
16286;SDS011;8251;53.568;10.018;2022-12-18T05:34:02;12.33;;;5.73;;
16286;SDS011;8251;53.568;10.018;2022-12-18T05:36:30;19.53;;;5.97;;
16286;SDS011;8251;53.568;10.018;2022-12-18T05:38:59;11.53;;;5.67;;
16286;SDS011;8251;53.568;10.018;2022-12-18T05:41:26;7.73;;;4.80;;
16286;SDS011;8251;53.568;10.018;2022-12-18T05:43:53;7.67;;;5.57;;
16286;SDS011;8251;53.568;10.018;2022-12-18T05:46:20;8.87;;;5.23;;
16286;SDS011;8251;53.568;10.018;2022-12-18T05:48:47;11.53;;;5.17;;
16286;SDS011;8251;53.568;10.018;2022-12-18T05:51:16;11.23;;;5.17;;
16286;SDS011;8251;53.568;10.018;2022-12-18T05:53:46;10.30;;;5.97;;
16286;SDS011;8251;53.568;10.018;2022-12-18T05:56:14;13.43;;;6.83;;
16286;SDS011;8251;53.568;10.018;2022-12-18T05:58:43;12.13;;;5.60;;
16286;SDS011;8251;53.568;10.018;2022-12-18T06:01:11;16.40;;;6.63;;
16286;SDS011;8251;53.568;10.018;2022-12-18T06:03:39;8.20;;;5.23;;
16286;SDS011;8251;53.568;10.018;2022-12-18T06:06:12;8.90;;;5.10;;
16286;SDS011;8251;53.568;10.018;2022-12-18T06:08:40;12.43;;;5.90;;
16286;SDS011;8251;53.568;10.018;2022-12-18T06:11:08;12.07;;;6.33;;
16286;SDS011;8251;53.568;10.018;2022-12-18T06:13:36;10.53;;;5.73;;
16286;SDS011;8251;53.568;10.018;2022-12-18T06:16:06;12.27;;;6.37;;
16286;SDS011;8251;53.568;10.018;2022-12-18T06:18:34;12.33;;;5.83;;
16286;SDS011;8251;53.568;10.018;2022-12-18T06:21:01;9.27;;;5.90;;
16286;SDS011;8251;53.568;10.018;2022-12-18T06:23:33;10.10;;;6.17;;
16286;SDS011;8251;53.568;10.018;2022-12-18T06:26:03;12.43;;;6.67;;
16286;SDS011;8251;53.568;10.018;2022-12-18T06:28:31;12.47;;;5.83;;
16286;SDS011;8251;53.568;10.018;2022-12-18T06:30:58;14.13;;;5.97;;
16286;SDS011;8251;53.568;10.018;2022-12-18T06:33:26;12.53;;;5.80;;
16286;SDS011;8251;53.568;10.018;2022-12-18T06:35:53;11.87;;;6.13;;
16286;SDS011;8251;53.568;10.018;2022-12-18T06:38:21;10.97;;;6.40;;
16286;SDS011;8251;53.568;10.018;2022-12-18T06:40:51;13.70;;;6.17;;
16286;SDS011;8251;53.568;10.018;2022-12-18T06:43:23;9.87;;;6.10;;
16286;SDS011;8251;53.568;10.018;2022-12-18T06:46:03;16.33;;;6.53;;
16286;SDS011;8251;53.568;10.018;2022-12-18T06:48:38;12.83;;;5.63;;
16286;SDS011;8251;53.568;10.018;2022-12-18T06:51:05;16.20;;;6.80;;
16286;SDS011;8251;53.568;10.018;2022-12-18T06:53:35;13.97;;;5.70;;
16286;SDS011;8251;53.568;10.018;2022-12-18T06:56:02;10.73;;;5.80;;
16286;SDS011;8251;53.568;10.018;2022-12-18T06:58:30;12.63;;;6.70;;
16286;SDS011;8251;53.568;10.018;2022-12-18T07:01:00;11.33;;;6.37;;
16286;SDS011;8251;53.568;10.018;2022-12-18T07:03:31;11.60;;;6.33;;
16286;SDS011;8251;53.568;10.018;2022-12-18T07:06:01;13.53;;;6.77;;
16286;SDS011;8251;53.568;10.018;2022-12-18T07:08:28;13.57;;;6.97;;
16286;SDS011;8251;53.568;10.018;2022-12-18T07:10:55;16.23;;;6.00;;
16286;SDS011;8251;53.568;10.018;2022-12-18T07:13:22;10.67;;;6.10;;
16286;SDS011;8251;53.568;10.018;2022-12-18T07:15:49;13.97;;;6.77;;
16286;SDS011;8251;53.568;10.018;2022-12-18T07:18:17;8.90;;;6.13;;
16286;SDS011;8251;53.568;10.018;2022-12-18T07:20:44;9.60;;;5.70;;
16286;SDS011;8251;53.568;10.018;2022-12-18T07:23:11;13.47;;;6.57;;
16286;SDS011;8251;53.568;10.018;2022-12-18T07:25:38;10.63;;;5.73;;
16286;SDS011;8251;53.568;10.018;2022-12-18T07:28:05;9.97;;;6.37;;
16286;SDS011;8251;53.568;10.018;2022-12-18T07:30:32;12.30;;;6.27;;
16286;SDS011;8251;53.568;10.018;2022-12-18T07:33:01;13.53;;;7.03;;
16286;SDS011;8251;53.568;10.018;2022-12-18T07:35:30;17.70;;;7.30;;
16286;SDS011;8251;53.568;10.018;2022-12-18T07:37:57;11.63;;;6.67;;
16286;SDS011;8251;53.568;10.018;2022-12-18T07:40:24;10.83;;;7.07;;
16286;SDS011;8251;53.568;10.018;2022-12-18T07:42:51;17.17;;;7.50;;
16286;SDS011;8251;53.568;10.018;2022-12-18T07:45:18;15.20;;;6.27;;
16286;SDS011;8251;53.568;10.018;2022-12-18T07:47:45;16.37;;;6.27;;
16286;SDS011;8251;53.568;10.018;2022-12-18T07:50:11;11.13;;;6.20;;
16286;SDS011;8251;53.568;10.018;2022-12-18T07:52:40;10.93;;;6.40;;
16286;SDS011;8251;53.568;10.018;2022-12-18T07:55:07;14.27;;;7.10;;
16286;SDS011;8251;53.568;10.018;2022-12-18T07:57:34;13.10;;;6.60;;
16286;SDS011;8251;53.568;10.018;2022-12-18T08:00:05;13.17;;;6.13;;
16286;SDS011;8251;53.568;10.018;2022-12-18T08:02:33;14.23;;;6.07;;
16286;SDS011;8251;53.568;10.018;2022-12-18T08:05:00;11.77;;;7.03;;
16286;SDS011;8251;53.568;10.018;2022-12-18T08:07:27;13.23;;;7.30;;
16286;SDS011;8251;53.568;10.018;2022-12-18T08:09:56;11.43;;;6.60;;
16286;SDS011;8251;53.568;10.018;2022-12-18T08:12:22;12.37;;;6.13;;
16286;SDS011;8251;53.568;10.018;2022-12-18T08:14:49;11.73;;;6.97;;
16286;SDS011;8251;53.568;10.018;2022-12-18T08:17:16;11.73;;;7.23;;
16286;SDS011;8251;53.568;10.018;2022-12-18T08:19:43;19.23;;;6.10;;
16286;SDS011;8251;53.568;10.018;2022-12-18T08:22:13;16.37;;;7.50;;
16286;SDS011;8251;53.568;10.018;2022-12-18T08:24:40;11.03;;;6.57;;
16286;SDS011;8251;53.568;10.018;2022-12-18T08:27:08;12.30;;;7.50;;
16286;SDS011;8251;53.568;10.018;2022-12-18T08:29:42;12.23;;;7.23;;
16286;SDS011;8251;53.568;10.018;2022-12-18T08:32:11;12.83;;;7.03;;
16286;SDS011;8251;53.568;10.018;2022-12-18T08:34:39;14.23;;;7.23;;
16286;SDS011;8251;53.568;10.018;2022-12-18T08:37:10;13.40;;;6.87;;
16286;SDS011;8251;53.568;10.018;2022-12-18T08:39:45;12.40;;;7.77;;
16286;SDS011;8251;53.568;10.018;2022-12-18T08:42:20;11.30;;;7.00;;
16286;SDS011;8251;53.568;10.018;2022-12-18T08:45:07;21.17;;;8.70;;
16286;SDS011;8251;53.568;10.018;2022-12-18T08:47:37;13.67;;;7.67;;
16286;SDS011;8251;53.568;10.018;2022-12-18T08:50:08;12.43;;;7.97;;
16286;SDS011;8251;53.568;10.018;2022-12-18T08:52:36;15.33;;;7.30;;
16286;SDS011;8251;53.568;10.018;2022-12-18T08:55:03;11.53;;;7.20;;
16286;SDS011;8251;53.568;10.018;2022-12-18T08:57:32;19.40;;;7.97;;
16286;SDS011;8251;53.568;10.018;2022-12-18T08:59:59;18.47;;;7.20;;
16286;SDS011;8251;53.568;10.018;2022-12-18T09:02:26;13.17;;;7.83;;
16286;SDS011;8251;53.568;10.018;2022-12-18T09:04:52;16.77;;;8.60;;
16286;SDS011;8251;53.568;10.018;2022-12-18T09:07:19;20.57;;;9.17;;
16286;SDS011;8251;53.568;10.018;2022-12-18T09:09:47;14.73;;;8.03;;
16286;SDS011;8251;53.568;10.018;2022-12-18T09:12:14;18.53;;;7.87;;
16286;SDS011;8251;53.568;10.018;2022-12-18T09:14:42;12.90;;;7.23;;
16286;SDS011;8251;53.568;10.018;2022-12-18T09:17:12;14.77;;;8.10;;
16286;SDS011;8251;53.568;10.018;2022-12-18T09:19:39;13.43;;;6.90;;
16286;SDS011;8251;53.568;10.018;2022-12-18T09:22:09;14.93;;;7.53;;
16286;SDS011;8251;53.568;10.018;2022-12-18T09:24:36;20.93;;;7.30;;
16286;SDS011;8251;53.568;10.018;2022-12-18T09:27:03;13.40;;;6.87;;
16286;SDS011;8251;53.568;10.018;2022-12-18T09:29:30;14.57;;;8.20;;
16286;SDS011;8251;53.568;10.018;2022-12-18T09:31:59;13.13;;;7.77;;
16286;SDS011;8251;53.568;10.018;2022-12-18T09:34:27;14.43;;;6.90;;
16286;SDS011;8251;53.568;10.018;2022-12-18T09:36:54;14.70;;;7.60;;
16286;SDS011;8251;53.568;10.018;2022-12-18T09:39:21;15.23;;;7.63;;
16286;SDS011;8251;53.568;10.018;2022-12-18T09:41:50;17.77;;;7.73;;
16286;SDS011;8251;53.568;10.018;2022-12-18T09:44:22;14.40;;;7.97;;
16286;SDS011;8251;53.568;10.018;2022-12-18T09:46:54;15.40;;;7.83;;
16286;SDS011;8251;53.568;10.018;2022-12-18T09:49:37;16.93;;;7.83;;
16286;SDS011;8251;53.568;10.018;2022-12-18T09:52:09;13.13;;;7.70;;
16286;SDS011;8251;53.568;10.018;2022-12-18T09:54:43;16.27;;;8.33;;
16286;SDS011;8251;53.568;10.018;2022-12-18T09:57:14;13.47;;;7.13;;
16286;SDS011;8251;53.568;10.018;2022-12-18T09:59:46;10.73;;;6.90;;
16286;SDS011;8251;53.568;10.018;2022-12-18T10:02:19;17.23;;;7.27;;
16286;SDS011;8251;53.568;10.018;2022-12-18T10:04:53;15.13;;;7.77;;
16286;SDS011;8251;53.568;10.018;2022-12-18T10:07:30;14.97;;;7.43;;
16286;SDS011;8251;53.568;10.018;2022-12-18T10:10:06;15.80;;;7.00;;
16286;SDS011;8251;53.568;10.018;2022-12-18T10:12:41;11.37;;;6.97;;
16286;SDS011;8251;53.568;10.018;2022-12-18T10:15:13;10.00;;;6.40;;
16286;SDS011;8251;53.568;10.018;2022-12-18T10:17:51;13.43;;;7.53;;
16286;SDS011;8251;53.568;10.018;2022-12-18T10:20:29;17.93;;;8.33;;
16286;SDS011;8251;53.568;10.018;2022-12-18T10:23:02;14.30;;;7.37;;
16286;SDS011;8251;53.568;10.018;2022-12-18T10:25:40;14.33;;;7.33;;
16286;SDS011;8251;53.568;10.018;2022-12-18T10:28:15;12.00;;;7.30;;
16286;SDS011;8251;53.568;10.018;2022-12-18T10:30:44;14.10;;;7.73;;
16286;SDS011;8251;53.568;10.018;2022-12-18T10:33:12;11.30;;;7.17;;
16286;SDS011;8251;53.568;10.018;2022-12-18T10:35:43;16.87;;;8.40;;
16286;SDS011;8251;53.568;10.018;2022-12-18T10:38:21;16.23;;;7.37;;
16286;SDS011;8251;53.568;10.018;2022-12-18T10:40:50;12.83;;;7.13;;
16286;SDS011;8251;53.568;10.018;2022-12-18T10:43:22;13.13;;;7.67;;
16286;SDS011;8251;53.568;10.018;2022-12-18T10:45:58;14.83;;;8.30;;
16286;SDS011;8251;53.568;10.018;2022-12-18T10:48:33;11.90;;;7.13;;
16286;SDS011;8251;53.568;10.018;2022-12-18T10:51:02;13.60;;;7.13;;
16286;SDS011;8251;53.568;10.018;2022-12-18T10:53:34;13.40;;;7.60;;
16286;SDS011;8251;53.568;10.018;2022-12-18T10:56:11;14.13;;;7.93;;
16286;SDS011;8251;53.568;10.018;2022-12-18T10:58:55;16.17;;;7.37;;
16286;SDS011;8251;53.568;10.018;2022-12-18T11:01:27;13.43;;;7.07;;
16286;SDS011;8251;53.568;10.018;2022-12-18T11:04:04;15.40;;;7.77;;
16286;SDS011;8251;53.568;10.018;2022-12-18T11:06:35;14.37;;;7.17;;
16286;SDS011;8251;53.568;10.018;2022-12-18T11:09:20;15.57;;;8.17;;
16286;SDS011;8251;53.568;10.018;2022-12-18T11:11:51;13.10;;;7.53;;
16286;SDS011;8251;53.568;10.018;2022-12-18T11:14:21;15.73;;;8.17;;
16286;SDS011;8251;53.568;10.018;2022-12-18T11:16:50;14.73;;;8.90;;
16286;SDS011;8251;53.568;10.018;2022-12-18T11:19:24;15.97;;;8.50;;
16286;SDS011;8251;53.568;10.018;2022-12-18T11:21:58;13.33;;;8.10;;
16286;SDS011;8251;53.568;10.018;2022-12-18T11:24:27;18.17;;;8.30;;
16286;SDS011;8251;53.568;10.018;2022-12-18T11:27:15;15.43;;;8.17;;
16286;SDS011;8251;53.568;10.018;2022-12-18T11:29:47;14.97;;;8.17;;
16286;SDS011;8251;53.568;10.018;2022-12-18T11:32:25;13.07;;;7.27;;
16286;SDS011;8251;53.568;10.018;2022-12-18T11:34:59;13.70;;;8.10;;
16286;SDS011;8251;53.568;10.018;2022-12-18T11:37:32;16.13;;;7.57;;
16286;SDS011;8251;53.568;10.018;2022-12-18T11:40:01;17.53;;;7.47;;
16286;SDS011;8251;53.568;10.018;2022-12-18T11:42:35;18.53;;;8.40;;
16286;SDS011;8251;53.568;10.018;2022-12-18T11:47:57;18.03;;;8.37;;
16286;SDS011;8251;53.568;10.018;2022-12-18T11:50:30;20.93;;;9.10;;
16286;SDS011;8251;53.568;10.018;2022-12-18T11:53:08;16.53;;;7.77;;
16286;SDS011;8251;53.568;10.018;2022-12-18T11:55:40;19.43;;;9.40;;
16286;SDS011;8251;53.568;10.018;2022-12-18T11:58:15;12.97;;;8.13;;
16286;SDS011;8251;53.568;10.018;2022-12-18T12:00:54;14.83;;;8.03;;
16286;SDS011;8251;53.568;10.018;2022-12-18T12:03:35;16.23;;;7.83;;
16286;SDS011;8251;53.568;10.018;2022-12-18T12:06:15;16.07;;;8.07;;
16286;SDS011;8251;53.568;10.018;2022-12-18T12:08:54;13.67;;;7.40;;
16286;SDS011;8251;53.568;10.018;2022-12-18T12:11:39;15.23;;;7.27;;
16286;SDS011;8251;53.568;10.018;2022-12-18T12:14:33;16.33;;;8.40;;
16286;SDS011;8251;53.568;10.018;2022-12-18T12:17:17;15.83;;;7.63;;
16286;SDS011;8251;53.568;10.018;2022-12-18T12:19:53;15.60;;;7.83;;
16286;SDS011;8251;53.568;10.018;2022-12-18T12:22:30;19.40;;;9.83;;
16286;SDS011;8251;53.568;10.018;2022-12-18T12:25:09;16.77;;;8.90;;
16286;SDS011;8251;53.568;10.018;2022-12-18T12:27:49;20.07;;;8.67;;
16286;SDS011;8251;53.568;10.018;2022-12-18T12:30:25;16.73;;;7.80;;
16286;SDS011;8251;53.568;10.018;2022-12-18T12:33:02;14.00;;;8.47;;
16286;SDS011;8251;53.568;10.018;2022-12-18T12:35:42;14.37;;;8.33;;
16286;SDS011;8251;53.568;10.018;2022-12-18T12:38:16;14.80;;;8.07;;
16286;SDS011;8251;53.568;10.018;2022-12-18T12:40:49;18.47;;;7.47;;
16286;SDS011;8251;53.568;10.018;2022-12-18T12:43:21;16.77;;;9.23;;
16286;SDS011;8251;53.568;10.018;2022-12-18T12:46:05;16.70;;;8.07;;
16286;SDS011;8251;53.568;10.018;2022-12-18T12:48:40;18.33;;;8.70;;
16286;SDS011;8251;53.568;10.018;2022-12-18T12:51:15;20.57;;;9.23;;
16286;SDS011;8251;53.568;10.018;2022-12-18T12:53:47;19.47;;;9.80;;
16286;SDS011;8251;53.568;10.018;2022-12-18T12:56:17;20.30;;;8.67;;
16286;SDS011;8251;53.568;10.018;2022-12-18T12:58:49;19.57;;;9.90;;
16286;SDS011;8251;53.568;10.018;2022-12-18T13:01:28;20.63;;;8.77;;
16286;SDS011;8251;53.568;10.018;2022-12-18T13:04:04;16.43;;;8.43;;
16286;SDS011;8251;53.568;10.018;2022-12-18T13:06:43;16.37;;;7.87;;
16286;SDS011;8251;53.568;10.018;2022-12-18T13:09:23;15.67;;;8.40;;
16286;SDS011;8251;53.568;10.018;2022-12-18T13:12:08;15.60;;;8.87;;
16286;SDS011;8251;53.568;10.018;2022-12-18T13:15:11;15.97;;;8.27;;
16286;SDS011;8251;53.568;10.018;2022-12-18T13:17:46;18.70;;;8.60;;
16286;SDS011;8251;53.568;10.018;2022-12-18T13:20:20;19.00;;;9.37;;
16286;SDS011;8251;53.568;10.018;2022-12-18T13:22:50;19.10;;;9.67;;
16286;SDS011;8251;53.568;10.018;2022-12-18T13:25:29;22.87;;;10.80;;
16286;SDS011;8251;53.568;10.018;2022-12-18T13:28:01;17.00;;;8.53;;
16286;SDS011;8251;53.568;10.018;2022-12-18T13:30:41;18.20;;;9.17;;
16286;SDS011;8251;53.568;10.018;2022-12-18T13:33:34;17.47;;;8.93;;
16286;SDS011;8251;53.568;10.018;2022-12-18T13:36:12;22.10;;;9.00;;
16286;SDS011;8251;53.568;10.018;2022-12-18T13:38:41;18.23;;;8.60;;
16286;SDS011;8251;53.568;10.018;2022-12-18T13:41:26;16.30;;;8.87;;
16286;SDS011;8251;53.568;10.018;2022-12-18T13:43:54;17.20;;;8.37;;
16286;SDS011;8251;53.568;10.018;2022-12-18T13:46:24;18.77;;;8.47;;
16286;SDS011;8251;53.568;10.018;2022-12-18T13:48:55;17.20;;;8.17;;
16286;SDS011;8251;53.568;10.018;2022-12-18T13:51:33;17.77;;;8.43;;
16286;SDS011;8251;53.568;10.018;2022-12-18T13:54:06;21.37;;;9.60;;
16286;SDS011;8251;53.568;10.018;2022-12-18T13:56:46;18.23;;;8.97;;
16286;SDS011;8251;53.568;10.018;2022-12-18T13:59:16;20.93;;;9.77;;
16286;SDS011;8251;53.568;10.018;2022-12-18T14:01:45;23.00;;;9.20;;
16286;SDS011;8251;53.568;10.018;2022-12-18T14:04:18;19.03;;;8.67;;
16286;SDS011;8251;53.568;10.018;2022-12-18T14:06:52;17.90;;;8.53;;
16286;SDS011;8251;53.568;10.018;2022-12-18T14:09:25;20.97;;;9.07;;
16286;SDS011;8251;53.568;10.018;2022-12-18T14:11:56;17.40;;;8.80;;
16286;SDS011;8251;53.568;10.018;2022-12-18T14:14:41;26.63;;;10.87;;
16286;SDS011;8251;53.568;10.018;2022-12-18T14:17:10;19.83;;;9.20;;
16286;SDS011;8251;53.568;10.018;2022-12-18T14:19:41;22.73;;;9.17;;
16286;SDS011;8251;53.568;10.018;2022-12-18T14:22:14;22.43;;;9.77;;
16286;SDS011;8251;53.568;10.018;2022-12-18T14:24:43;21.80;;;9.20;;
16286;SDS011;8251;53.568;10.018;2022-12-18T14:27:20;20.23;;;9.17;;
16286;SDS011;8251;53.568;10.018;2022-12-18T14:29:50;22.77;;;8.83;;
16286;SDS011;8251;53.568;10.018;2022-12-18T14:32:17;19.13;;;8.20;;
16286;SDS011;8251;53.568;10.018;2022-12-18T14:34:46;22.53;;;9.83;;
16286;SDS011;8251;53.568;10.018;2022-12-18T14:37:15;19.80;;;9.23;;
16286;SDS011;8251;53.568;10.018;2022-12-18T14:39:53;21.57;;;9.17;;
16286;SDS011;8251;53.568;10.018;2022-12-18T14:42:26;21.13;;;8.27;;
16286;SDS011;8251;53.568;10.018;2022-12-18T14:47:57;20.53;;;9.90;;
16286;SDS011;8251;53.568;10.018;2022-12-18T14:50:26;17.37;;;9.33;;
16286;SDS011;8251;53.568;10.018;2022-12-18T14:52:53;23.20;;;10.87;;
16286;SDS011;8251;53.568;10.018;2022-12-18T14:55:20;23.97;;;9.63;;
16286;SDS011;8251;53.568;10.018;2022-12-18T14:57:50;27.60;;;11.07;;
16286;SDS011;8251;53.568;10.018;2022-12-18T15:00:25;20.50;;;9.77;;
16286;SDS011;8251;53.568;10.018;2022-12-18T15:02:55;23.93;;;10.37;;
16286;SDS011;8251;53.568;10.018;2022-12-18T15:05:25;24.30;;;10.27;;